Terminal Aerodrome Forecast
Issued by NWS

Home | Current Version | Previous Version | Text Only | Print | Product List | Glossary On
Versions: 1 2 3 4 5 6 7 8 9 10 11 12 13 14 15 16 17 18 19 20 21 22 23 24 25 26 27 28
000
FTUS41 KOKX 230616 RRA
TAFHPN
TAF
KHPN 230616Z 2306/2406 34006KT P6SM BKN007
     FM230800 34008KT P6SM SCT015 SCT250
     FM231200 35008KT P6SM BKN250
     FM232000 VRB04KT P6SM BKN150
     FM240300 VRB03KT P6SM BKN120
      AMD NOT SKED=

USA.gov is the U.S. government's official web portal to all federal, state and local government web resources and services.